Time;durP1;ratioP1;P1;durP2;ratioP2;P2;SDS_P1;SDS_P2;PMS_P1;PMS_P2;Temp;Humidity;BMP_temperature;BMP_pressure;BME280_temperature;BME280_humidity;BME280_pressure;Samples;Min_cycle;Max_cycle;Signal;HPM_P1;HPM_P2
2022/10/27 00:00:45;;;;;;;15.70;10.07;;;14.00;99.90;;;;;;4998155;28;92375;-79
2022/10/27 00:03:13;;;;;;;13.32;9.82;;;14.00;99.90;;;;;;5014432;28;95604;-79
2022/10/27 00:05:41;;;;;;;17.85;10.90;;;14.00;99.90;;;;;;5015849;28;95606;-79
2022/10/27 00:08:11;;;;;;;14.10;9.30;;;13.90;99.90;;;;;;5014207;28;99355;-79
2022/10/27 00:10:41;;;;;;;11.43;9.55;;;13.90;99.90;;;;;;5031197;28;92656;-79
2022/10/27 00:13:08;;;;;;;15.95;10.15;;;13.90;99.90;;;;;;5014528;28;96586;-79
2022/10/27 00:15:35;;;;;;;15.75;10.98;;;13.90;99.90;;;;;;5014105;28;96128;-79
2022/10/27 00:18:07;;;;;;;15.35;9.93;;;13.90;99.90;;;;;;5031089;28;92402;-79
2022/10/27 00:20:34;;;;;;;17.98;10.27;;;13.90;99.90;;;;;;5032168;28;91672;-79
2022/10/27 00:23:01;;;;;;;13.18;10.90;;;13.90;99.90;;;;;;5014136;28;94333;-79
2022/10/27 00:25:28;;;;;;;15.38;10.55;;;13.80;99.90;;;;;;5014107;28;92545;-79
2022/10/27 00:27:55;;;;;;;20.05;11.07;;;13.80;99.90;;;;;;5014024;28;94911;-79
2022/10/27 00:30:22;;;;;;;16.65;10.60;;;13.80;99.90;;;;;;5013850;28;92536;-79
2022/10/27 00:32:49;;;;;;;16.63;10.50;;;13.80;99.90;;;;;;5013795;28;95583;-79
2022/10/27 00:35:16;;;;;;;15.32;11.27;;;13.80;99.90;;;;;;5014133;28;92418;-79
2022/10/27 00:37:43;;;;;;;13.98;10.48;;;13.80;99.90;;;;;;5013891;28;92762;-79
2022/10/27 00:40:10;;;;;;;18.52;11.40;;;13.80;99.90;;;;;;5030740;28;92464;-79
2022/10/27 00:42:37;;;;;;;19.42;10.52;;;13.80;99.90;;;;;;5030736;28;93223;-79
2022/10/27 00:45:05;;;;;;;16.55;11.38;;;13.80;99.90;;;;;;4997189;28;109156;-79
2022/10/27 00:47:35;;;;;;;18.52;12.20;;;13.80;99.90;;;;;;5013848;28;92406;-79
2022/10/27 00:50:07;;;;;;;19.50;11.18;;;13.80;99.90;;;;;;5014823;28;92424;-79
2022/10/27 00:52:44;;;;;;;16.52;11.75;;;13.80;99.90;;;;;;5013836;28;95610;-79
2022/10/27 00:55:17;;;;;;;15.88;10.45;;;13.70;99.90;;;;;;5015113;28;95485;-79
2022/10/27 00:57:46;;;;;;;14.25;11.35;;;13.80;99.90;;;;;;5015015;28;92480;-79
2022/10/27 01:00:13;;;;;;;16.35;11.50;;;13.80;99.90;;;;;;5013793;28;92859;-79
2022/10/27 01:02:40;;;;;;;16.77;11.55;;;13.80;99.90;;;;;;5014865;28;93202;-79
2022/10/27 01:05:15;;;;;;;20.48;12.40;;;13.80;99.90;;;;;;5013480;28;95922;-79
2022/10/27 01:07:43;;;;;;;20.23;11.52;;;13.90;99.90;;;;;;5013502;28;92435;-79
2022/10/27 01:10:12;;;;;;;18.88;12.15;;;13.90;99.90;;;;;;5017638;28;91673;-79
2022/10/27 01:12:39;;;;;;;14.70;10.60;;;13.90;99.90;;;;;;5033546;28;93214;-79
2022/10/27 01:15:07;;;;;;;17.63;11.23;;;14.00;99.90;;;;;;5017801;28;108690;-79
2022/10/27 01:17:56;;;;;;;15.95;10.95;;;14.00;99.90;;;;;;5032640;28;94898;-79
2022/10/27 01:20:41;;;;;;;22.60;11.70;;;14.10;99.90;;;;;;5018773;28;93386;-79
2022/10/27 01:23:46;;;;;;;16.15;11.00;;;14.10;99.90;;;;;;5018473;28;93315;-79
2022/10/27 01:26:25;;;;;;;15.88;10.82;;;14.10;99.90;;;;;;5016842;28;95787;-79
2022/10/27 01:29:03;;;;;;;13.85;10.13;;;14.00;99.90;;;;;;5017966;28;92852;-79
2022/10/27 01:31:49;;;;;;;16.33;11.63;;;14.00;99.90;;;;;;5016636;28;92527;-79
2022/10/27 01:34:41;;;;;;;13.57;10.88;;;14.00;99.90;;;;;;5016750;28;94371;-79
2022/10/27 01:37:14;;;;;;;17.75;10.63;;;14.00;99.90;;;;;;5018392;28;93061;-79
2022/10/27 01:40:12;;;;;;;17.45;10.82;;;14.00;99.90;;;;;;5016620;28;92490;-79
2022/10/27 01:42:48;;;;;;;13.35;10.90;;;14.10;99.90;;;;;;5017059;28;92399;-79
2022/10/27 01:45:22;;;;;;;16.63;11.50;;;14.10;99.90;;;;;;5016706;28;95702;-79
2022/10/27 01:47:50;;;;;;;15.68;11.30;;;14.10;99.90;;;;;;5017768;28;94352;-79
2022/10/27 01:50:18;;;;;;;15.18;11.20;;;14.10;99.90;;;;;;5017936;28;92720;-79
2022/10/27 01:52:47;;;;;;;19.80;11.63;;;14.10;99.90;;;;;;4999918;28;92468;-79
2022/10/27 01:55:39;;;;;;;19.52;12.25;;;14.10;99.90;;;;;;5017816;28;93135;-79
2022/10/27 01:58:47;;;;;;;17.88;11.73;;;14.20;99.90;;;;;;5016548;28;92964;-79
2022/10/27 02:01:48;;;;;;;16.08;11.73;;;14.30;99.90;;;;;;4995236;28;92686;-79
2022/10/27 02:04:27;;;;;;;19.75;11.27;;;14.40;99.90;;;;;;5018301;28;91719;-79
2022/10/27 02:06:57;;;;;;;17.35;12.13;;;14.40;99.90;;;;;;5017414;28;93343;-79
2022/10/27 02:09:42;;;;;;;15.43;11.25;;;14.40;99.90;;;;;;5017625;28;93159;-79
2022/10/27 02:12:20;;;;;;;17.90;11.90;;;14.60;99.90;;;;;;5016076;28;94935;-79
2022/10/27 02:14:50;;;;;;;15.98;11.23;;;14.60;99.90;;;;;;5017778;28;92345;-79
2022/10/27 02:17:20;;;;;;;15.52;10.10;;;14.70;99.90;;;;;;5016018;28;94947;-79
2022/10/27 02:19:49;;;;;;;13.45;10.15;;;14.70;99.90;;;;;;5015647;28;96285;-79
2022/10/27 02:22:16;;;;;;;13.23;10.80;;;14.70;99.90;;;;;;5016895;28;96166;-79
2022/10/27 02:24:43;;;;;;;20.17;11.27;;;14.80;99.90;;;;;;5032756;28;93074;-79
2022/10/27 02:27:19;;;;;;;13.88;9.93;;;14.90;99.90;;;;;;5015893;28;93389;-79
2022/10/27 02:29:48;;;;;;;17.10;11.00;;;14.90;99.90;;;;;;5016725;28;93184;-79
2022/10/27 02:32:19;;;;;;;17.08;10.27;;;14.90;99.90;;;;;;5015714;28;93710;-79
2022/10/27 02:34:48;;;;;;;12.70;9.50;;;15.00;99.90;;;;;;5015594;28;92397;-79
2022/10/27 02:37:29;;;;;;;15.98;10.02;;;15.00;99.90;;;;;;5014942;28;95688;-79
2022/10/27 02:39:56;;;;;;;13.95;9.70;;;15.10;99.90;;;;;;5015279;28;96834;-79
2022/10/27 02:42:23;;;;;;;11.95;9.02;;;15.00;99.90;;;;;;5033140;28;92848;-79
2022/10/27 02:44:50;;;;;;;15.85;10.25;;;15.10;99.90;;;;;;5016404;28;92481;-79
2022/10/27 02:47:17;;;;;;;12.30;8.98;;;15.10;99.90;;;;;;5015459;28;93134;-79
2022/10/27 02:49:44;;;;;;;13.77;8.98;;;15.10;99.90;;;;;;5017510;28;93081;-79
2022/10/27 02:52:12;;;;;;;14.60;9.88;;;15.10;99.90;;;;;;5015981;28;92429;-79
2022/10/27 02:54:40;;;;;;;17.67;9.63;;;15.10;99.90;;;;;;5033194;28;91670;-79
2022/10/27 02:57:07;;;;;;;13.45;9.98;;;15.10;99.90;;;;;;5032648;28;93298;-79
2022/10/27 02:59:34;;;;;;;12.45;10.10;;;15.10;99.90;;;;;;5016841;28;93242;-79
2022/10/27 03:02:01;;;;;;;15.90;10.38;;;15.00;99.90;;;;;;5013615;28;94994;-79
2022/10/27 03:04:28;;;;;;;15.13;10.48;;;14.90;99.90;;;;;;4998815;28;92521;-79
2022/10/27 03:06:55;;;;;;;14.85;10.10;;;14.90;99.90;;;;;;5015473;28;93298;-79
2022/10/27 03:09:22;;;;;;;16.80;9.73;;;14.90;99.90;;;;;;5016754;28;93068;-79
2022/10/27 03:11:49;;;;;;;12.63;9.98;;;14.80;99.90;;;;;;5016668;28;103240;-79
2022/10/27 03:14:16;;;;;;;12.52;9.85;;;14.80;99.90;;;;;;5015312;28;92426;-79
2022/10/27 03:16:43;;;;;;;16.23;10.50;;;14.80;99.90;;;;;;5015566;28;93249;-79
2022/10/27 03:19:10;;;;;;;16.88;10.95;;;14.70;99.90;;;;;;5031970;28;92940;-79
2022/10/27 03:21:37;;;;;;;19.13;11.02;;;14.70;99.90;;;;;;5014958;28;92561;-79
2022/10/27 03:24:04;;;;;;;18.40;11.52;;;14.70;99.90;;;;;;5031816;28;92552;-79
2022/10/27 03:26:31;;;;;;;19.73;13.18;;;14.60;99.90;;;;;;5015033;28;95691;-79
2022/10/27 03:28:58;;;;;;;14.98;11.82;;;14.60;99.90;;;;;;5015649;28;95439;-79
2022/10/27 03:31:25;;;;;;;19.38;12.02;;;14.60;99.90;;;;;;5031209;27;92425;-79
2022/10/27 03:33:52;;;;;;;18.65;11.38;;;14.60;99.90;;;;;;5014815;28;92499;-79
2022/10/27 03:36:19;;;;;;;17.50;12.13;;;14.60;99.90;;;;;;5014631;28;96139;-79
2022/10/27 03:38:46;;;;;;;22.83;12.48;;;14.60;99.90;;;;;;5016124;28;93119;-79
2022/10/27 03:41:12;;;;;;;16.92;11.52;;;14.60;99.90;;;;;;5016303;28;92773;-79
2022/10/27 03:43:39;;;;;;;17.60;12.45;;;14.60;99.90;;;;;;5015086;28;91884;-79
2022/10/27 03:46:09;;;;;;;18.20;12.48;;;14.50;99.90;;;;;;5031311;28;93269;-79
2022/10/27 03:48:36;;;;;;;17.15;12.68;;;14.50;99.90;;;;;;5015900;28;92474;-79
2022/10/27 03:51:03;;;;;;;18.88;12.75;;;14.40;99.90;;;;;;5014599;28;94861;-79
2022/10/27 03:53:29;;;;;;;17.55;11.60;;;14.40;99.90;;;;;;5014870;28;92463;-79
2022/10/27 03:55:56;;;;;;;17.35;11.55;;;14.40;99.90;;;;;;5015891;28;94102;-79
2022/10/27 03:58:23;;;;;;;20.00;12.30;;;14.40;99.90;;;;;;5015633;28;93193;-79
2022/10/27 04:00:50;;;;;;;16.25;12.98;;;14.30;99.90;;;;;;5014432;28;92451;-79
2022/10/27 04:03:17;;;;;;;19.10;13.20;;;14.30;99.90;;;;;;5014215;28;92480;-79
2022/10/27 04:05:48;;;;;;;18.52;12.07;;;14.30;99.90;;;;;;5015644;28;93358;-79
2022/10/27 04:08:15;;;;;;;19.75;12.63;;;14.30;99.90;;;;;;5016068;28;93158;-79
2022/10/27 04:10:42;;;;;;;20.05;13.02;;;14.30;99.90;;;;;;5031253;28;92404;-79
2022/10/27 04:13:09;;;;;;;18.75;13.68;;;14.30;99.90;;;;;;4997461;28;92545;-79
2022/10/27 04:15:36;;;;;;;16.35;12.63;;;14.20;99.90;;;;;;5012835;28;98360;-79
2022/10/27 04:18:03;;;;;;;22.77;14.13;;;14.20;99.90;;;;;;5013913;28;103590;-79
2022/10/27 04:20:30;;;;;;;20.42;13.07;;;14.20;99.90;;;;;;5013919;28;92602;-79
2022/10/27 04:22:58;;;;;;;23.25;14.40;;;14.20;99.90;;;;;;5014348;28;92385;-79
2022/10/27 04:25:26;;;;;;;23.67;13.52;;;14.10;99.90;;;;;;5013452;28;96150;-79
2022/10/27 04:28:04;;;;;;;20.23;13.68;;;14.10;99.90;;;;;;5015399;28;93144;-79
2022/10/27 04:30:31;;;;;;;22.80;13.52;;;14.10;99.90;;;;;;5014306;28;92488;-79
2022/10/27 04:32:58;;;;;;;21.92;13.32;;;14.10;99.90;;;;;;5014348;28;92096;-79
2022/10/27 04:35:26;;;;;;;22.58;13.25;;;14.10;99.90;;;;;;5013537;28;95646;-79
2022/10/27 04:37:56;;;;;;;20.65;12.57;;;14.10;99.90;;;;;;5013769;28;92767;-79
2022/10/27 04:40:24;;;;;;;21.02;14.02;;;14.10;99.90;;;;;;5029643;28;95549;-79
2022/10/27 04:42:51;;;;;;;18.55;12.45;;;14.10;99.90;;;;;;5013831;28;92456;-79
2022/10/27 04:45:18;;;;;;;21.25;13.15;;;14.10;99.90;;;;;;5030342;28;93090;-79
2022/10/27 04:47:45;;;;;;;20.52;13.48;;;14.10;99.90;;;;;;5013916;28;93036;-79
2022/10/27 04:50:13;;;;;;;24.80;14.30;;;14.00;99.90;;;;;;5013754;28;92416;-79
2022/10/27 04:52:40;;;;;;;15.65;12.52;;;14.00;99.90;;;;;;5013783;28;92411;-79
2022/10/27 04:55:09;;;;;;;21.33;14.15;;;14.00;99.90;;;;;;5013899;28;93278;-79
2022/10/27 04:57:36;;;;;;;23.60;13.25;;;14.00;99.90;;;;;;5015541;28;93045;-81
2022/10/27 05:00:03;;;;;;;23.58;13.95;;;14.00;99.90;;;;;;5030623;28;92461;-81
2022/10/27 05:02:30;;;;;;;19.42;13.48;;;14.00;99.90;;;;;;5012867;28;106737;-81
2022/10/27 05:04:59;;;;;;;22.05;14.15;;;13.90;99.90;;;;;;5011971;28;95645;-81
2022/10/27 05:07:25;;;;;;;25.17;13.82;;;13.90;99.90;;;;;;5029962;28;94290;-81
2022/10/27 05:09:52;;;;;;;20.65;13.75;;;13.90;99.90;;;;;;5030365;28;92528;-81
2022/10/27 05:12:19;;;;;;;19.95;13.60;;;13.90;99.90;;;;;;5014652;28;92557;-81
2022/10/27 05:14:46;;;;;;;18.52;13.63;;;13.90;99.90;;;;;;5030219;28;93342;-81
2022/10/27 05:17:13;;;;;;;21.05;14.45;;;13.90;99.90;;;;;;5014377;28;92795;-79
2022/10/27 05:19:45;;;;;;;18.45;13.57;;;13.80;99.90;;;;;;5013384;28;92411;-79
2022/10/27 05:22:12;;;;;;;25.45;15.13;;;13.80;99.90;;;;;;5015235;28;91683;-79
2022/10/27 05:24:38;;;;;;;50.83;40.38;;;13.80;99.90;;;;;;5013299;28;93917;-79
2022/10/27 05:27:05;;;;;;;40.92;36.58;;;13.80;99.90;;;;;;5014588;28;93059;-79
2022/10/27 05:29:32;;;;;;;20.17;16.45;;;13.80;99.90;;;;;;5028510;28;94872;-79
2022/10/27 05:31:59;;;;;;;18.23;15.68;;;13.80;99.90;;;;;;5014424;28;92427;-79
2022/10/27 05:34:26;;;;;;;20.85;15.23;;;13.90;99.90;;;;;;5029625;28;93757;-79
2022/10/27 05:36:53;;;;;;;34.60;28.15;;;13.90;99.90;;;;;;4996222;28;109227;-79
2022/10/27 05:39:20;;;;;;;27.17;24.20;;;13.80;99.90;;;;;;5012691;28;92537;-79
2022/10/27 05:41:47;;;;;;;23.50;19.40;;;13.90;99.90;;;;;;5012926;28;93259;-79
2022/10/27 05:44:14;;;;;;;26.33;24.02;;;13.90;99.90;;;;;;5012926;28;96004;-79
2022/10/27 05:46:40;;;;;;;42.38;38.63;;;13.90;99.90;;;;;;5013064;28;95204;-79
2022/10/27 05:49:10;;;;;;;39.30;35.60;;;13.90;99.90;;;;;;5012828;28;92609;-78
2022/10/27 05:51:37;;;;;;;30.33;27.40;;;13.90;99.90;;;;;;5014221;28;92950;-81
2022/10/27 05:54:04;;;;;;;18.65;14.52;;;14.00;99.90;;;;;;5029095;28;95583;-81
2022/10/27 05:56:31;;;;;;;20.83;14.20;;;14.00;99.90;;;;;;5015940;28;100860;-79
2022/10/27 05:58:58;;;;;;;21.00;16.80;;;14.00;99.90;;;;;;5017734;28;92527;-79
2022/10/27 06:01:25;;;;;;;18.92;12.98;;;14.00;99.90;;;;;;5015843;28;102102;-79
2022/10/27 06:03:52;;;;;;;15.45;12.13;;;14.00;99.90;;;;;;5016265;28;93118;-79
2022/10/27 06:06:19;;;;;;;17.65;11.85;;;14.00;99.90;;;;;;5016361;28;93001;-79
2022/10/27 06:08:46;;;;;;;18.27;13.75;;;14.00;99.90;;;;;;5016475;28;92422;-79
2022/10/27 06:11:13;;;;;;;16.45;11.98;;;14.00;99.90;;;;;;5000088;28;91752;-79
2022/10/27 06:13:40;;;;;;;18.83;12.38;;;14.00;99.90;;;;;;5032464;28;93209;-79
2022/10/27 06:16:07;;;;;;;17.65;12.35;;;14.10;99.90;;;;;;5016057;28;95725;-79
2022/10/27 06:18:35;;;;;;;20.13;11.48;;;14.10;99.90;;;;;;5014728;28;94860;-79
2022/10/27 06:21:02;;;;;;;16.92;12.60;;;14.10;99.90;;;;;;5015982;28;92867;-79
2022/10/27 06:23:29;;;;;;;20.35;12.60;;;14.10;99.90;;;;;;5032690;28;93226;-79
2022/10/27 06:25:56;;;;;;;15.93;10.85;;;14.10;99.90;;;;;;5015997;28;93028;-79
2022/10/27 06:28:23;;;;;;;17.15;12.55;;;14.10;99.90;;;;;;5016632;28;92439;-79
2022/10/27 06:30:50;;;;;;;17.17;11.52;;;14.10;99.90;;;;;;5017784;28;92841;-79
2022/10/27 06:33:17;;;;;;;16.75;11.43;;;14.10;99.90;;;;;;5017028;28;92961;-79
2022/10/27 06:35:47;;;;;;;15.80;11.57;;;14.10;99.90;;;;;;5015811;28;95688;-79
2022/10/27 06:38:15;;;;;;;15.18;11.43;;;14.20;99.90;;;;;;4999112;28;92448;-79
2022/10/27 06:40:43;;;;;;;17.38;11.55;;;14.30;99.90;;;;;;5015710;28;93153;-79
2022/10/27 06:43:15;;;;;;;22.02;15.90;;;14.30;99.90;;;;;;5014338;28;98353;-79
2022/10/27 06:45:46;;;;;;;17.65;13.02;;;14.40;99.90;;;;;;5016679;28;94543;-79
2022/10/27 06:48:14;;;;;;;20.33;14.10;;;14.50;99.90;;;;;;5032694;28;92483;-79
2022/10/27 06:50:41;;;;;;;16.83;12.48;;;14.50;99.90;;;;;;5016513;28;103481;-79
2022/10/27 06:53:08;;;;;;;17.20;12.52;;;14.60;99.90;;;;;;5016666;28;93120;-79
2022/10/27 06:55:35;;;;;;;20.15;14.55;;;14.70;99.90;;;;;;5031967;28;93056;-79
2022/10/27 06:58:02;;;;;;;12.88;11.15;;;14.80;99.90;;;;;;5015301;28;92529;-79
2022/10/27 07:00:29;;;;;;;14.57;12.30;;;14.90;99.90;;;;;;5015836;28;91679;-78
2022/10/27 07:02:56;;;;;;;15.40;11.23;;;15.00;99.90;;;;;;5015193;28;96049;-78
2022/10/27 07:05:24;;;;;;;15.18;10.48;;;15.10;99.90;;;;;;5031448;27;92909;-79
2022/10/27 07:07:52;;;;;;;14.75;10.18;;;15.20;99.90;;;;;;5030399;28;95569;-79
2022/10/27 07:10:20;;;;;;;15.75;13.75;;;15.30;99.90;;;;;;5031813;28;92502;-79
2022/10/27 07:12:57;;;;;;;17.10;15.18;;;15.50;99.90;;;;;;5014918;28;96060;-78
2022/10/27 07:15:35;;;;;;;13.68;9.77;;;15.60;99.90;;;;;;5015532;28;92853;-78
2022/10/27 07:18:07;;;;;;;12.90;11.55;;;15.70;99.90;;;;;;5017121;28;92494;-79
2022/10/27 07:20:35;;;;;;;12.40;9.32;;;15.80;99.90;;;;;;5015326;28;92517;-78
2022/10/27 07:23:02;;;;;;;12.80;9.02;;;15.80;99.90;;;;;;5015483;28;96029;-78
2022/10/27 07:25:31;;;;;;;15.00;12.18;;;15.90;99.90;;;;;;5015838;28;95076;-79
2022/10/27 07:28:00;;;;;;;16.55;12.43;;;15.90;99.90;;;;;;5015321;28;92540;-79
2022/10/27 07:30:33;;;;;;;20.88;18.30;;;16.00;99.90;;;;;;5016486;28;92453;-78
2022/10/27 07:33:02;;;;;;;21.35;18.10;;;16.00;99.90;;;;;;5014793;28;96577;-79
2022/10/27 07:35:29;;;;;;;24.33;20.98;;;16.00;99.90;;;;;;4998108;28;98110;-81
2022/10/27 07:37:55;;;;;;;13.27;11.80;;;16.10;99.90;;;;;;5014771;28;92908;-81
2022/10/27 07:40:23;;;;;;;19.60;14.90;;;16.10;99.90;;;;;;4998322;28;92547;-79
2022/10/27 07:42:58;;;;;;;25.23;19.23;;;16.20;99.90;;;;;;5014487;28;94579;-79
2022/10/27 07:45:28;;;;;;;12.25;9.93;;;16.20;99.90;;;;;;4998278;28;95609;-78
2022/10/27 07:47:56;;;;;;;15.95;13.70;;;16.20;99.90;;;;;;5016138;28;102201;-78
2022/10/27 07:50:27;;;;;;;11.07;9.52;;;16.30;99.90;;;;;;5015030;28;91772;-78
2022/10/27 07:52:55;;;;;;;11.20;9.38;;;16.40;99.90;;;;;;5016383;28;92905;-78
2022/10/27 07:55:24;;;;;;;12.57;9.85;;;16.50;99.90;;;;;;5015088;28;92520;-76
2022/10/27 07:58:01;;;;;;;14.35;10.00;;;16.50;99.90;;;;;;5014010;28;95143;-78
2022/10/27 08:00:30;;;;;;;16.15;9.20;;;16.60;99.90;;;;;;5013814;28;106386;-76
2022/10/27 08:03:01;;;;;;;13.52;9.93;;;16.60;99.90;;;;;;5016048;28;93223;-75
2022/10/27 08:05:35;;;;;;;14.43;12.50;;;16.60;99.90;;;;;;4998222;28;95536;-76
2022/10/27 08:08:04;;;;;;;12.10;8.88;;;16.60;99.90;;;;;;5014372;28;92542;-76
2022/10/27 08:10:33;;;;;;;15.13;9.73;;;16.60;99.90;;;;;;5016119;28;92433;-76
2022/10/27 08:13:00;;;;;;;13.55;11.98;;;16.60;99.90;;;;;;5014096;28;109531;-75
2022/10/27 08:15:27;;;;;;;11.95;9.15;;;16.60;99.90;;;;;;5015865;28;93043;-76
2022/10/27 08:17:56;;;;;;;14.02;10.80;;;16.60;99.90;;;;;;5015632;28;92353;-76
2022/10/27 08:20:24;;;;;;;24.70;22.25;;;16.60;99.90;;;;;;5015580;28;92969;-75
2022/10/27 08:22:56;;;;;;;21.27;19.15;;;16.70;99.90;;;;;;5013653;28;95451;-76
2022/10/27 08:25:23;;;;;;;20.35;18.55;;;16.70;99.90;;;;;;5013858;28;95483;-76
2022/10/27 08:27:50;;;;;;;86.50;61.05;;;16.80;99.90;;;;;;5013911;28;93104;-76
2022/10/27 08:30:18;;;;;;;291.40;160.98;;;16.80;99.90;;;;;;5014467;28;92710;-76
2022/10/27 08:32:49;;;;;;;54.30;36.33;;;16.90;99.90;;;;;;5014422;28;93269;-76
2022/10/27 08:35:16;;;;;;;17.45;12.02;;;17.00;99.90;;;;;;5013531;28;95790;-76
2022/10/27 08:37:43;;;;;;;13.75;11.80;;;17.00;99.90;;;;;;5015308;28;92982;-75
2022/10/27 08:40:11;;;;;;;15.52;12.63;;;17.00;99.90;;;;;;5031235;28;91663;-75
2022/10/27 08:42:46;;;;;;;31.23;28.52;;;17.00;99.90;;;;;;5015120;28;93296;-76
2022/10/27 08:45:28;;;;;;;13.20;11.35;;;17.00;99.90;;;;;;5015257;28;93078;-76
2022/10/27 08:47:59;;;;;;;16.58;12.98;;;17.10;99.90;;;;;;5013950;28;94773;-76
2022/10/27 08:50:32;;;;;;;17.58;15.60;;;17.10;99.90;;;;;;5013682;28;92461;-75
2022/10/27 08:53:07;;;;;;;22.00;16.93;;;17.10;99.90;;;;;;5014875;28;93241;-76
2022/10/27 08:55:45;;;;;;;23.15;20.85;;;17.10;99.90;;;;;;5013625;28;95624;-76
2022/10/27 08:58:20;;;;;;;10.20;8.70;;;17.10;99.90;;;;;;5015042;28;92440;-76
2022/10/27 09:01:03;;;;;;;12.35;10.95;;;17.10;99.90;;;;;;5014467;28;92384;-76
2022/10/27 09:03:52;;;;;;;8.75;7.20;;;17.10;99.90;;;;;;4997075;28;95923;-75
2022/10/27 09:06:42;;;;;;;9.38;7.78;;;17.10;99.90;;;;;;5015804;28;92916;-75
2022/10/27 09:09:24;;;;;;;8.60;7.18;;;17.20;99.90;;;;;;5014528;28;92523;-75
2022/10/27 09:12:16;;;;;;;9.38;6.80;;;17.30;99.90;;;;;;5013861;28;92395;-76
2022/10/27 09:14:58;;;;;;;11.82;7.88;;;17.40;99.90;;;;;;5012640;28;94772;-76
2022/10/27 09:17:40;;;;;;;7.97;6.47;;;17.50;99.90;;;;;;4997100;28;97998;-76
2022/10/27 09:20:37;;;;;;;10.75;6.78;;;17.50;99.90;;;;;;5013878;28;93070;-76
2022/10/27 09:23:10;;;;;;;7.13;6.32;;;17.70;99.90;;;;;;5013622;28;92487;-76
2022/10/27 09:25:39;;;;;;;7.70;6.05;;;17.70;99.90;;;;;;5015199;28;93249;-76
2022/10/27 09:28:18;;;;;;;8.45;6.47;;;17.80;99.90;;;;;;5013582;28;95505;-76
2022/10/27 09:30:49;;;;;;;7.97;5.47;;;17.90;99.90;;;;;;5016721;28;92679;-76
2022/10/27 09:33:20;;;;;;;6.28;5.25;;;18.00;99.90;;;;;;5019071;28;91778;-76
2022/10/27 09:35:49;;;;;;;6.50;4.90;;;18.10;99.90;;;;;;5016829;28;95931;-76
2022/10/27 09:38:21;;;;;;;7.78;5.60;;;18.20;99.90;;;;;;5018346;28;92478;-76
2022/10/27 09:40:51;;;;;;;7.93;6.65;;;18.30;99.90;;;;;;5017700;28;95417;-76
2022/10/27 09:43:21;;;;;;;8.32;6.03;;;18.40;99.90;;;;;;5018668;28;92450;-76
2022/10/27 09:46:04;;;;;;;8.25;5.13;;;18.50;99.90;;;;;;5033819;28;93136;-76
2022/10/27 09:48:33;;;;;;;9.50;5.15;;;18.70;99.90;;;;;;5018452;28;93099;-75
2022/10/27 09:51:04;;;;;;;5.40;4.65;;;18.70;99.90;;;;;;5016944;28;92582;-75
2022/10/27 09:53:49;;;;;;;6.80;5.28;;;18.90;99.90;;;;;;5018680;28;92438;-76
2022/10/27 09:56:28;;;;;;;5.95;4.82;;;19.00;99.90;;;;;;5018480;28;93265;-76
2022/10/27 09:58:59;;;;;;;9.75;5.30;;;19.10;99.90;;;;;;5034042;28;92764;-76
2022/10/27 10:01:45;;;;;;;6.97;4.78;;;19.20;99.90;;;;;;5018504;28;92384;-76
2022/10/27 10:04:35;;;;;;;8.32;4.82;;;19.30;99.90;;;;;;5015747;28;92418;-76
2022/10/27 10:07:05;;;;;;;5.55;4.35;;;19.40;99.90;;;;;;5016594;28;95592;-76
2022/10/27 10:09:39;;;;;;;7.22;4.60;;;19.40;99.90;;;;;;5033525;28;95513;-76
2022/10/27 10:12:20;;;;;;;6.28;4.53;;;19.40;99.90;;;;;;5018087;28;92435;-76
2022/10/27 10:14:49;;;;;;;5.35;3.92;;;19.40;99.90;;;;;;5016822;28;92573;-75
2022/10/27 10:17:26;;;;;;;4.95;4.07;;;19.40;99.90;;;;;;5016570;28;93301;-75
2022/10/27 10:19:54;;;;;;;6.65;4.10;;;19.60;99.90;;;;;;5016607;28;92898;-76
2022/10/27 10:22:29;;;;;;;6.18;3.88;;;19.60;99.90;;;;;;5018149;28;92506;-76
2022/10/27 10:25:04;;;;;;;6.72;3.50;;;19.70;99.90;;;;;;5016792;28;91714;-76
2022/10/27 10:27:33;;;;;;;5.03;3.88;;;19.80;99.90;;;;;;5017970;28;93264;-76
2022/10/27 10:30:04;;;;;;;6.25;3.05;;;19.80;99.90;;;;;;4998690;28;93816;-76
2022/10/27 10:32:36;;;;;;;6.57;3.65;;;19.90;99.90;;;;;;5015447;28;94879;-76
2022/10/27 10:35:42;;;;;;;9.75;4.28;;;19.90;99.90;;;;;;5016425;28;92588;-76
2022/10/27 10:38:30;;;;;;;6.35;3.80;;;20.10;99.90;;;;;;5017334;28;92942;-76
2022/10/27 10:41:05;;;;;;;4.93;3.03;;;20.10;99.90;;;;;;5015708;28;95516;-76
2022/10/27 10:43:32;;;;;;;8.02;3.40;;;20.20;99.90;;;;;;5016403;28;92496;-76
2022/10/27 10:45:59;;;;;;;3.10;2.72;;;20.30;99.90;;;;;;5015957;28;92533;-76
2022/10/27 10:48:31;;;;;;;6.50;3.17;;;20.30;99.90;;;;;;5017407;28;93228;-76
2022/10/27 10:50:59;;;;;;;4.72;3.00;;;20.40;99.90;;;;;;5017445;28;92822;-77
2022/10/27 10:53:32;;;;;;;3.25;2.50;;;20.40;99.90;;;;;;5016204;28;92386;-76
2022/10/27 10:56:01;;;;;;;;;;;20.60;99.90;;;;;;5016719;28;92458;-76
2022/10/27 10:58:31;;;;;;;7.00;3.30;;;20.50;99.90;;;;;;5015688;28;98050;-76
2022/10/27 11:01:05;;;;;;;7.10;2.70;;;20.40;99.90;;;;;;5016700;28;97320;-76
2022/10/27 11:03:38;;;;;;;11.05;6.50;;;20.50;99.90;;;;;;5015904;28;92473;-76
2022/10/27 11:06:14;;;;;;;81.28;50.08;;;20.50;99.90;;;;;;5017334;28;92457;-76
2022/10/27 11:08:41;;;;;;;27.48;24.77;;;20.50;99.90;;;;;;5015284;28;95620;-76
2022/10/27 11:11:15;;;;;;;8.40;7.38;;;20.50;99.90;;;;;;5031124;28;110514;-76
2022/10/27 11:14:04;;;;;;;;;;;20.60;99.90;;;;;;5017427;28;92493;-76
2022/10/27 11:16:32;;;;;;;6.05;3.65;;;20.50;99.90;;;;;;5018905;28;91609;-76
2022/10/27 11:19:15;;;;;;;4.60;2.50;;;20.40;99.90;;;;;;5015510;28;95524;-76
2022/10/27 11:21:52;;;;;;;3.17;2.40;;;20.60;99.90;;;;;;5017132;28;92573;-76
2022/10/27 11:24:25;;;;;;;4.93;2.55;;;20.60;99.90;;;;;;5015882;28;94956;-76
2022/10/27 11:26:59;;;;;;;;;;;20.80;99.90;;;;;;5017685;28;92336;-76
2022/10/27 11:29:29;;;;;;;;;;;20.70;99.90;;;;;;5018608;28;93356;-76
2022/10/27 11:32:28;;;;;;;4.65;2.20;;;20.60;99.90;;;;;;5018030;28;92688;-76
2022/10/27 11:35:04;;;;;;;2.92;2.03;;;20.70;99.90;;;;;;5015986;28;92477;-76
2022/10/27 11:37:54;;;;;;;2.78;2.35;;;20.70;99.90;;;;;;5032322;28;92457;-76
2022/10/27 11:40:34;;;;;;;2.97;2.03;;;20.80;99.90;;;;;;5016726;28;93289;-76
2022/10/27 11:43:08;;;;;;;6.40;2.83;;;20.80;99.90;;;;;;5016949;28;93106;-76
2022/10/27 11:45:57;;;;;;;3.58;2.70;;;20.80;99.90;;;;;;5015349;28;92459;-76
2022/10/27 11:48:32;;;;;;;4.10;1.90;;;20.80;99.90;;;;;;5015441;28;92395;-76
2022/10/27 11:51:26;;;;;;;5.95;2.42;;;20.80;99.90;;;;;;5014117;28;95563;-77
2022/10/27 11:53:53;;;;;;;5.03;2.58;;;20.80;99.90;;;;;;5014637;28;98164;-77
2022/10/27 11:56:56;;;;;;;2.63;1.90;;;20.70;99.90;;;;;;5031212;28;101254;-77
2022/10/27 11:59:37;;;;;;;4.68;2.20;;;20.70;99.90;;;;;;4995073;28;92598;-76
2022/10/27 12:02:30;;;;;;;7.20;2.33;;;20.70;99.90;;;;;;5016247;28;93255;-77
2022/10/27 12:05:06;;;;;;;5.05;2.00;;;20.80;99.90;;;;;;5015213;28;93625;-78
2022/10/27 12:07:58;;;;;;;4.55;2.17;;;20.80;99.90;;;;;;5015247;28;92496;-78
2022/10/27 12:11:01;;;;;;;4.60;2.13;;;20.80;99.90;;;;;;5015540;28;91794;-78
2022/10/27 12:13:57;;;;;;;4.55;1.95;;;20.80;99.90;;;;;;5016104;28;93422;-78
2022/10/27 12:16:37;;;;;;;4.18;2.17;;;20.80;99.90;;;;;;5015645;28;92762;-77
2022/10/27 12:19:16;;;;;;;4.95;2.35;;;20.80;99.90;;;;;;5014325;28;94906;-81
2022/10/27 12:22:00;;;;;;;5.95;1.88;;;20.90;99.90;;;;;;4994186;28;92476;-81
2022/10/27 12:24:38;;;;;;;2.50;1.35;;;21.00;99.90;;;;;;4975410;28;96871;-81
2022/10/27 12:27:17;;;;;;;3.40;1.65;;;21.00;99.90;;;;;;4994283;28;93096;-85
2022/10/27 12:29:48;;;;;;;14.95;9.68;;;21.00;99.90;;;;;;4993637;28;92546;-79
2022/10/27 12:32:26;;;;;;;5.75;3.50;;;21.00;99.90;;;;;;4994621;28;93880;-78
2022/10/27 12:35:18;;;;;;;3.50;2.50;;;21.10;99.90;;;;;;4987770;28;95676;-77
2022/10/27 12:38:03;;;;;;;4.93;4.43;;;21.10;99.90;;;;;;4994639;28;93080;-75
2022/10/27 12:40:55;;;;;;;3.03;1.98;;;21.00;99.90;;;;;;4994389;28;92577;-76
2022/10/27 12:44:00;;;;;;;5.20;3.35;;;21.00;99.90;;;;;;4978324;28;92596;-76
2022/10/27 12:46:27;;;;;;;3.83;1.83;;;21.00;99.90;;;;;;4994235;28;96938;-76
2022/10/27 12:49:04;;;;;;;3.75;2.70;;;20.80;99.90;;;;;;4994175;28;96011;-76
2022/10/27 12:51:39;;;;;;;3.95;2.38;;;20.90;99.90;;;;;;4993019;28;92486;-77
2022/10/27 12:54:26;;;;;;;2.92;2.30;;;20.90;99.90;;;;;;4997478;28;92525;-76
2022/10/27 12:57:13;;;;;;;5.30;2.60;;;20.90;99.90;;;;;;5015702;28;93233;-79
2022/10/27 13:00:16;;;;;;;4.15;3.75;;;20.90;99.90;;;;;;5013882;28;95821;-74